Terminal Aerodrome Forecast
Issued by NWS Cleveland, OH

Home | Current Version | Previous Version | Graphics & Text | Print | Product List | Glossary Off
Versions: 1 2 3 4 5 6 7 8 9 10 11 12 13 14 15 16 17 18

000
FTUS41 KCLE 152300
TAFCAK
TAF
KCAK 152333Z 1600/1624 32008KT P6SM SCT025 BKN040
      TEMPO 1600/1602 6SM -SHSN BKN025
     FM160600 VRB03KT P6SM SCT040
     FM161500 14007KT P6SM SCT250=

USA.gov is the U.S. government's official web portal to all federal, state and local government web resources and services.